Time;durP1;ratioP1;P1;durP2;ratioP2;P2;SDS_P1;SDS_P2;PMS_P1;PMS_P2;Temp;Humidity;BMP_temperature;BMP_pressure;BME280_temperature;BME280_humidity;BME280_pressure;Samples;Min_cycle;Max_cycle;Signal;HPM_P1;HPM_P2
2023/07/10 00:02:58;;;;;;;1.65;1.00;;;;;;;20.99;59.66;96962.91;10455640;28;20061;-31
2023/07/10 00:07:59;;;;;;;1.05;0.85;;;;;;;21.20;59.96;96953.44;10454772;28;20104;-31
2023/07/10 00:12:59;;;;;;;1.20;0.98;;;;;;;21.36;59.24;96931.25;10448376;28;20041;-31
2023/07/10 00:18:00;;;;;;;2.03;1.30;;;;;;;21.27;59.22;96918.56;10456375;28;20028;-32
2023/07/10 00:23:00;;;;;;;1.47;1.20;;;;;;;21.14;59.21;96933.09;10456090;28;20044;-31
2023/07/10 00:28:01;;;;;;;4.17;1.20;;;;;;;21.11;59.29;96978.97;10455670;28;20033;-31
2023/07/10 00:33:04;;;;;;;2.47;1.27;;;;;;;21.07;59.35;96982.38;10454739;28;20410;-31
2023/07/10 00:38:20;;;;;;;1.60;1.40;;;;;;;21.04;59.38;96995.13;10453776;28;20384;-32
2023/07/10 00:43:41;;;;;;;2.03;1.20;;;;;;;21.01;59.19;96990.06;10454474;28;20061;-32
2023/07/10 00:48:50;;;;;;;1.63;1.20;;;;;;;21.02;59.52;97029.94;10441273;28;20719;-31
2023/07/10 00:53:53;;;;;;;1.42;1.08;;;;;;;21.26;60.05;97037.44;10455639;28;20083;-31
2023/07/10 00:58:53;;;;;;;1.35;1.00;;;;;;;21.38;59.43;97027.16;10454338;28;20075;-31
2023/07/10 01:03:53;;;;;;;2.00;1.20;;;;;;;21.28;59.89;97038.28;10453772;28;20091;-30
2023/07/10 01:09:02;;;;;;;2.30;1.57;;;;;;;21.16;59.16;97030.72;10452817;28;20135;-32
2023/07/10 01:14:08;;;;;;;1.23;0.98;;;;;;;21.07;59.22;97033.28;10454483;28;20131;-31
2023/07/10 01:19:19;;;;;;;1.80;1.25;;;;;;;21.06;59.09;97046.88;10452823;28;20083;-31
2023/07/10 01:24:20;;;;;;;1.60;1.02;;;;;;;21.03;59.14;97057.09;10453373;28;20091;-31
2023/07/10 01:29:24;;;;;;;2.63;1.30;;;;;;;21.01;59.41;97035.88;10453863;28;20495;-31
2023/07/10 01:34:50;;;;;;;1.40;1.17;;;;;;;21.02;59.48;97021.44;10454262;28;20024;-37
2023/07/10 01:39:54;;;;;;;1.40;1.10;;;;;;;21.26;59.53;97014.53;10441589;28;20032;-32
2023/07/10 01:44:54;;;;;;;1.13;1.00;;;;;;;21.38;58.97;97019.53;10449802;28;20059;-31
2023/07/10 01:49:58;;;;;;;1.37;1.27;;;;;;;21.26;59.49;97024.72;10432505;28;20029;-31
2023/07/10 01:54:58;;;;;;;3.03;1.10;;;;;;;21.16;59.34;97038.38;10451784;28;20526;-34
2023/07/10 02:00:01;;;;;;;1.40;0.97;;;;;;;21.11;59.07;97057.91;10418373;28;20049;-31
2023/07/10 02:05:12;;;;;;;1.10;1.00;;;;;;;21.06;59.10;97034.16;10411924;28;20049;-32
2023/07/10 02:10:13;;;;;;;1.98;1.30;;;;;;;21.04;59.35;97058.78;10418073;28;20025;-31
2023/07/10 02:15:13;;;;;;;1.60;1.30;;;;;;;21.03;59.15;97069.81;10409127;28;20045;-31
2023/07/10 02:20:14;;;;;;;1.55;0.88;;;;;;;21.00;59.55;97069.84;10410611;28;20338;-31
2023/07/10 02:25:14;;;;;;;3.90;1.20;;;;;;;21.28;59.72;97073.94;10425820;28;20518;-31
2023/07/10 02:30:15;;;;;;;1.35;1.08;;;;;;;21.36;59.18;97046.72;10410246;28;20423;-31
2023/07/10 02:35:15;;;;;;;1.95;0.90;;;;;;;21.27;58.93;97063.75;10410207;28;20056;-31
2023/07/10 02:40:15;;;;;;;1.17;1.00;;;;;;;21.18;58.83;97092.66;10414251;28;20022;-32
2023/07/10 02:45:16;;;;;;;1.57;1.20;;;;;;;21.13;59.13;97089.28;10409889;28;20302;-33
2023/07/10 02:50:17;;;;;;;2.85;1.38;;;;;;;21.08;59.02;97075.75;10418987;28;20300;-33
2023/07/10 02:55:17;;;;;;;2.20;1.30;;;;;;;21.06;59.07;97074.88;10442892;28;20080;-31
2023/07/10 03:00:17;;;;;;;2.20;1.40;;;;;;;21.02;58.97;97080.00;10415319;28;20295;-32
2023/07/10 03:05:18;;;;;;;2.08;1.23;;;;;;;21.03;58.88;97104.59;10410473;28;20042;-31
2023/07/10 03:10:19;;;;;;;1.65;1.30;;;;;;;21.24;59.45;97128.25;10417597;28;20047;-31
2023/07/10 03:15:21;;;;;;;2.47;0.90;;;;;;;21.41;59.15;97136.69;10409331;28;20041;-31
2023/07/10 03:20:22;;;;;;;1.48;1.33;;;;;;;21.35;58.90;97208.06;10416350;28;20083;-31
2023/07/10 03:25:23;;;;;;;1.55;1.30;;;;;;;21.20;59.08;97210.66;10425257;28;20050;-31
2023/07/10 03:30:24;;;;;;;0.90;0.80;;;;;;;21.13;58.80;97205.59;10424440;28;20033;-32
2023/07/10 03:35:24;;;;;;;1.33;1.17;;;;;;;21.09;58.66;97184.38;10417113;28;20507;-31
2023/07/10 03:40:24;;;;;;;4.53;1.63;;;;;;;21.09;58.80;97186.06;10416279;28;20045;-32
2023/07/10 03:45:24;;;;;;;1.47;1.13;;;;;;;21.05;59.15;97164.03;10408889;28;20051;-31
2023/07/10 03:50:25;;;;;;;1.63;1.00;;;;;;;21.07;58.92;97154.66;10407922;28;20040;-31
2023/07/10 03:55:25;;;;;;;2.50;1.97;;;;;;;21.21;60.55;97128.28;10418964;28;20064;-31
2023/07/10 04:00:26;;;;;;;1.30;1.20;;;;;;;21.43;59.65;97139.22;10407967;28;20515;-31
2023/07/10 04:05:26;;;;;;;3.05;1.60;;;;;;;21.37;59.38;97140.09;10416116;28;20302;-31
2023/07/10 04:10:26;;;;;;;4.83;2.80;;;;;;;21.27;59.96;97130.81;10420717;28;20422;-32
2023/07/10 04:15:27;;;;;;;9.67;4.63;;;;;;;21.39;66.47;97171.50;10424046;28;20033;-31
2023/07/10 04:20:27;;;;;;;9.80;5.57;;;;;;;21.67;73.48;97218.13;10413343;28;20049;-31
2023/07/10 04:25:28;;;;;;;10.37;5.40;;;;;;;21.57;69.94;97268.25;10420611;28;20037;-31
2023/07/10 04:30:28;;;;;;;9.07;5.40;;;;;;;21.82;75.53;97229.09;10412257;28;20040;-32
2023/07/10 04:35:28;;;;;;;7.60;5.63;;;;;;;21.50;69.26;97213.09;10414414;28;20033;-31
2023/07/10 04:40:29;;;;;;;7.60;4.80;;;;;;;21.65;69.82;97210.50;10429938;28;20045;-31
2023/07/10 04:45:29;;;;;;;8.43;4.93;;;;;;;21.69;73.02;97202.00;10427282;28;20404;-31
2023/07/10 04:50:29;;;;;;;11.17;4.67;;;;;;;21.60;68.60;97219.84;10420100;28;20287;-31
2023/07/10 04:55:30;;;;;;;10.73;4.30;;;;;;;21.42;66.50;97258.13;10414185;28;20749;-31
2023/07/10 05:00:31;;;;;;;10.45;3.97;;;;;;;21.34;64.99;97247.13;10412422;28;20055;-31
2023/07/10 05:05:32;;;;;;;9.93;3.67;;;;;;;21.25;64.34;97226.78;10421052;28;20124;-32
2023/07/10 05:10:32;;;;;;;11.27;3.67;;;;;;;21.24;63.25;97224.22;10410561;28;20112;-31
2023/07/10 05:15:33;;;;;;;9.33;3.93;;;;;;;21.20;62.11;97242.88;10417373;28;20207;-31
2023/07/10 05:20:33;;;;;;;6.33;3.67;;;;;;;21.19;61.66;97251.38;10420333;28;20037;-31
2023/07/10 05:25:34;;;;;;;7.43;3.47;;;;;;;21.22;64.09;97261.59;10417760;28;20292;-31
2023/07/10 05:30:37;;;;;;;5.67;2.63;;;;;;;21.39;63.29;97244.56;10416848;28;20287;-31
2023/07/10 05:35:47;;;;;;;8.00;2.78;;;;;;;21.49;63.79;97243.66;10443815;28;20292;-36
2023/07/10 05:40:47;;;;;;;4.57;2.88;;;;;;;21.38;64.17;97233.50;10426554;28;20457;-32
2023/07/10 05:45:49;;;;;;;4.78;3.40;;;;;;;21.29;63.31;97228.44;10420217;28;20037;-31
2023/07/10 05:50:50;;;;;;;6.05;4.45;;;;;;;21.24;62.10;97214.84;10434032;28;20044;-32
2023/07/10 05:55:53;;;;;;;5.95;3.53;;;;;;;21.21;61.60;97212.34;10421644;28;20107;-33
2023/07/10 06:00:56;;;;;;;5.10;3.20;;;;;;;21.19;61.29;97221.69;10420702;28;20049;-31
2023/07/10 06:06:05;;;;;;;4.47;2.47;;;;;;;21.17;61.09;97218.31;10435785;28;20029;-31
2023/07/10 06:11:07;;;;;;;4.75;2.97;;;;;;;21.14;60.91;97213.19;10410622;28;20090;-31
2023/07/10 06:16:09;;;;;;;3.25;2.35;;;;;;;21.34;62.35;97218.22;10439134;28;20491;-31
2023/07/10 06:21:10;;;;;;;3.03;2.40;;;;;;;21.50;62.01;97223.28;10426809;28;20083;-32
2023/07/10 06:26:11;;;;;;;4.53;2.67;;;;;;;21.42;61.70;97230.13;10430834;28;20033;-31
2023/07/10 06:31:11;;;;;;;7.07;2.73;;;;;;;21.31;61.76;97236.91;10426847;28;20033;-31
2023/07/10 06:36:12;;;;;;;3.43;3.10;;;;;;;21.25;61.49;97247.16;10418726;28;20021;-31
2023/07/10 06:41:13;;;;;;;3.83;3.20;;;;;;;21.20;60.97;97246.28;10421789;28;20292;-32
2023/07/10 06:46:13;;;;;;;4.47;2.47;;;;;;;21.20;60.82;97264.13;10412780;28;20403;-32
2023/07/10 06:51:14;;;;;;;6.93;3.30;;;;;;;21.18;60.72;97260.75;10422742;28;20028;-31
2023/07/10 06:56:14;;;;;;;4.50;3.17;;;;;;;21.16;60.46;97262.44;10429150;28;20040;-31
2023/07/10 07:01:15;;;;;;;7.43;4.07;;;;;;;21.27;62.97;97264.94;10425449;28;20111;-32
2023/07/10 07:06:15;;;;;;;3.40;2.50;;;;;;;21.47;61.90;97268.31;10437991;28;20036;-33
2023/07/10 07:11:16;;;;;;;2.90;2.03;;;;;;;21.48;61.04;97264.91;10441013;28;20095;-31
2023/07/10 07:16:16;;;;;;;4.32;2.67;;;;;;;21.34;61.68;97275.13;10425206;28;20036;-31
2023/07/10 07:21:17;;;;;;;3.50;2.43;;;;;;;21.27;60.79;97265.81;10417195;28;20029;-31
2023/07/10 07:26:17;;;;;;;2.70;2.30;;;;;;;21.21;60.47;97265.81;10441570;28;20334;-31
2023/07/10 07:31:18;;;;;;;4.50;2.47;;;;;;;21.20;60.53;97269.22;10419487;28;20037;-32
2023/07/10 07:36:18;;;;;;;4.77;3.50;;;;;;;21.16;60.48;97252.25;10416576;28;20312;-31
2023/07/10 07:41:18;;;;;;;5.60;3.20;;;;;;;21.14;60.52;97258.19;10414258;28;20041;-31
2023/07/10 07:46:19;;;;;;;3.60;2.90;;;;;;;21.13;60.23;97252.25;10437369;28;20039;-31
2023/07/10 07:51:19;;;;;;;4.37;2.43;;;;;;;21.42;62.03;97250.50;10419443;28;20112;-31
2023/07/10 07:56:19;;;;;;;3.87;2.30;;;;;;;21.51;61.15;97250.47;10436601;28;20510;-31
2023/07/10 08:01:20;;;;;;;2.30;2.10;;;;;;;21.44;61.43;97255.56;10441011;28;20288;-31
2023/07/10 08:06:20;;;;;;;6.33;3.47;;;;;;;21.34;60.99;97257.31;10445121;28;20051;-31
2023/07/10 08:11:21;;;;;;;6.88;3.78;;;;;;;21.31;61.92;97252.19;10424280;28;20048;-31
2023/07/10 08:16:21;;;;;;;7.40;4.10;;;;;;;21.29;60.96;97243.72;10442813;28;20036;-31
2023/07/10 08:21:21;;;;;;;6.27;3.40;;;;;;;21.21;60.41;97244.59;10431951;28;20034;-32
2023/07/10 08:26:22;;;;;;;6.20;4.10;;;;;;;21.22;60.40;97257.31;10430907;28;20030;-32
2023/07/10 08:31:25;;;;;;;6.13;3.87;;;;;;;21.19;60.50;97262.44;10439563;28;20032;-31
2023/07/10 08:36:25;;;;;;;4.43;2.63;;;;;;;21.29;62.68;97253.91;10420174;28;20279;-32
2023/07/10 08:41:28;;;;;;;4.77;2.20;;;;;;;21.52;61.53;97269.97;10431249;28;20033;-31
2023/07/10 08:46:29;;;;;;;2.63;2.33;;;;;;;21.55;60.88;97261.50;10430098;28;20044;-30
2023/07/10 08:51:46;;;;;;;2.67;2.13;;;;;;;21.40;61.86;97267.47;10454357;28;20493;-32
2023/07/10 08:57:17;;;;;;;3.72;2.30;;;;;;;21.34;60.48;97261.53;10421212;28;20029;-31
2023/07/10 09:02:49;;;;;;;3.92;2.58;;;;;;;21.26;60.55;97264.13;10432687;28;20518;-31
2023/07/10 09:07:50;;;;;;;5.22;3.58;;;;;;;21.22;60.54;97257.31;10428640;28;20432;-31
2023/07/10 09:12:56;;;;;;;4.53;3.22;;;;;;;21.20;60.55;97258.16;10425925;28;20033;-32
2023/07/10 09:18:25;;;;;;;5.38;3.25;;;;;;;21.19;60.69;97269.22;10417141;28;20395;-32
2023/07/10 09:23:30;;;;;;;4.97;3.10;;;;;;;21.22;62.47;97271.78;10444986;28;20036;-31
2023/07/10 09:28:31;;;;;;;4.10;2.35;;;;;;;21.48;61.79;97255.53;10420392;28;20106;-31
2023/07/10 09:33:51;;;;;;;2.97;2.15;;;;;;;21.55;60.86;97261.50;10428309;28;20106;-32
2023/07/10 09:38:52;;;;;;;3.88;2.63;;;;;;;21.41;61.03;97258.97;10443883;28;20033;-31
2023/07/10 09:44:10;;;;;;;5.10;3.03;;;;;;;21.34;60.38;97259.00;10428353;28;20037;-32
2023/07/10 09:49:17;;;;;;;3.80;2.95;;;;;;;21.27;60.54;97258.16;10419387;28;20135;-32
2023/07/10 09:54:18;;;;;;;8.23;4.22;;;;;;;21.22;60.83;97270.06;10448187;28;20403;-31
2023/07/10 09:59:21;;;;;;;7.33;5.00;;;;;;;21.21;60.43;97258.19;10427955;28;20034;-32
2023/07/10 10:04:29;;;;;;;6.15;3.85;;;;;;;21.22;60.60;97249.69;10428298;28;20040;-32
2023/07/10 10:09:30;;;;;;;6.55;4.03;;;;;;;21.21;60.62;97245.44;10449737;28;20395;-31
2023/07/10 10:14:43;;;;;;;8.98;4.90;;;;;;;21.48;61.94;97239.44;10428648;28;20033;-31
2023/07/10 10:19:50;;;;;;;8.63;4.63;;;;;;;21.63;61.12;97240.19;10410832;28;20057;-31
2023/07/10 10:24:50;;;;;;;6.55;4.45;;;;;;;21.52;61.45;97239.41;10436576;28;20060;-31
2023/07/10 10:30:18;;;;;;;7.33;4.23;;;;;;;21.42;61.08;97240.31;10414032;28;20036;-32
2023/07/10 10:35:22;;;;;;;6.25;4.70;;;;;;;21.35;60.56;97242.84;10416139;28;20389;-31
2023/07/10 10:40:36;;;;;;;8.20;4.38;;;;;;;21.31;60.51;97239.47;10425903;28;20471;-31
2023/07/10 10:45:43;;;;;;;4.25;3.85;;;;;;;21.26;60.72;97231.00;10437062;28;20032;-31
2023/07/10 10:51:05;;;;;;;6.30;4.30;;;;;;;21.22;60.63;97224.22;10410344;28;20030;-31
2023/07/10 10:56:18;;;;;;;5.18;4.03;;;;;;;21.24;60.73;97235.22;10417916;28;20509;-32
2023/07/10 11:01:29;;;;;;;7.97;4.40;;;;;;;21.38;62.54;97225.88;10434125;28;20084;-32
2023/07/10 11:06:42;;;;;;;5.35;3.78;;;;;;;21.59;61.76;97228.34;10416810;28;20039;-31
2023/07/10 11:11:43;;;;;;;4.65;3.90;;;;;;;21.56;61.10;97233.44;10410879;28;20029;-32
2023/07/10 11:16:45;;;;;;;5.43;3.78;;;;;;;21.45;61.38;97230.09;10417913;28;20095;-33
2023/07/10 11:21:45;;;;;;;17.23;11.82;;;;;;;21.40;61.54;97216.50;10410785;28;20065;-32
2023/07/10 11:26:51;;;;;;;24.50;12.07;;;;;;;21.38;61.09;97218.22;10408539;28;20038;-31
2023/07/10 11:31:55;;;;;;;38.40;24.05;;;;;;;21.34;60.72;97201.25;10414581;28;20276;-32
2023/07/10 11:36:58;;;;;;;23.52;13.98;;;;;;;21.35;62.82;97205.50;10416290;28;20033;-32
2023/07/10 11:42:01;;;;;;;25.23;15.43;;;;;;;21.30;61.68;97197.03;10410585;28;20120;-31
2023/07/10 11:47:04;;;;;;;24.33;15.10;;;;;;;21.32;62.96;97190.22;10408189;28;20488;-31
2023/07/10 11:52:07;;;;;;;11.63;7.72;;;;;;;21.58;62.90;97193.53;10419842;28;20120;-30
2023/07/10 11:57:08;;;;;;;9.43;7.00;;;;;;;21.71;62.19;97190.06;10411208;28;20067;-30
2023/07/10 12:02:33;;;;;;;13.65;8.40;;;;;;;21.56;62.84;97182.47;10407430;28;20388;-31
2023/07/10 12:07:33;;;;;;;15.43;10.82;;;;;;;21.47;62.08;97172.31;10412673;28;20048;-31
2023/07/10 12:12:34;;;;;;;13.77;7.20;;;;;;;21.40;61.72;97160.47;10411244;28;20392;-31
2023/07/10 12:17:38;;;;;;;19.73;11.23;;;;;;;21.35;61.55;97169.84;10434852;28;20300;-31
2023/07/10 12:22:39;;;;;;;18.05;9.43;;;;;;;21.32;61.64;97159.66;10407862;28;20276;-32
2023/07/10 12:27:41;;;;;;;18.17;12.73;;;;;;;21.30;61.86;97163.06;10415991;28;20606;-32
2023/07/10 12:32:41;;;;;;;15.13;11.07;;;;;;;21.31;61.70;97159.69;10409553;28;20033;-31
2023/07/10 12:37:46;;;;;;;12.27;7.60;;;;;;;21.44;63.35;97143.47;10413238;28;20063;-32
2023/07/10 12:42:47;;;;;;;10.27;7.53;;;;;;;21.65;62.51;97136.59;10412993;28;20117;-31
2023/07/10 12:47:53;;;;;;;11.65;6.93;;;;;;;21.63;61.81;97138.28;10430696;28;20028;-31
2023/07/10 12:52:56;;;;;;;10.57;7.85;;;;;;;21.51;62.48;97143.44;10429691;28;20439;-31
2023/07/10 12:58:00;;;;;;;16.15;12.48;;;;;;;21.46;61.91;97139.22;10413757;28;20046;-31
2023/07/10 13:03:00;;;;;;;10.20;7.43;;;;;;;21.40;61.56;97132.44;10411995;28;20029;-31
2023/07/10 13:08:02;;;;;;;18.83;12.20;;;;;;;21.37;61.46;97124.81;10413884;28;20037;-31
2023/07/10 13:13:02;;;;;;;16.98;11.65;;;;;;;21.34;61.06;97129.94;10422062;28;20041;-31
2023/07/10 13:18:05;;;;;;;17.10;12.83;;;;;;;21.34;61.45;97129.94;10421270;28;20037;-32
2023/07/10 13:23:05;;;;;;;15.35;10.20;;;;;;;21.34;61.59;97129.94;10416530;28;20075;-31
2023/07/10 13:28:17;;;;;;;9.67;7.77;;;;;;;21.60;62.08;97123.00;10413143;28;20037;-31
2023/07/10 13:33:27;;;;;;;9.10;6.70;;;;;;;21.70;61.49;97124.66;10415985;28;20045;-31
2023/07/10 13:38:28;;;;;;;9.20;6.47;;;;;;;21.57;63.04;97111.97;10420968;28;20038;-31
2023/07/10 13:43:28;;;;;;;12.48;8.45;;;;;;;21.50;62.09;97116.28;10420065;28;20527;-32
2023/07/10 13:48:29;;;;;;;15.67;10.63;;;;;;;21.45;61.69;97110.34;10415021;28;20030;-32
2023/07/10 13:53:29;;;;;;;16.13;11.13;;;;;;;21.41;61.39;97106.09;10421701;28;20040;-32
2023/07/10 13:58:29;;;;;;;12.83;10.03;;;;;;;21.41;61.41;97111.19;10415501;28;20031;-31
2023/07/10 14:03:30;;;;;;;16.07;12.57;;;;;;;21.39;61.41;97107.00;10423041;28;20033;-32
2023/07/10 14:08:31;;;;;;;15.90;11.85;;;;;;;21.39;61.22;97112.09;10419627;28;20030;-31
2023/07/10 14:13:32;;;;;;;9.13;7.18;;;;;;;21.47;63.18;97100.16;10411226;28;20025;-31
2023/07/10 14:18:33;;;;;;;8.80;6.20;;;;;;;21.69;62.22;97099.19;10416369;28;20033;-31
2023/07/10 14:23:33;;;;;;;8.95;6.70;;;;;;;21.69;61.50;97097.50;10423562;28;20032;-31
2023/07/10 14:28:33;;;;;;;10.30;7.82;;;;;;;21.56;62.30;97095.84;10415027;28;20029;-31
2023/07/10 14:33:34;;;;;;;12.83;8.93;;;;;;;21.49;61.82;97089.09;10410201;28;20124;-31
2023/07/10 14:38:34;;;;;;;14.70;10.40;;;;;;;21.45;61.73;97092.50;10417566;28;20037;-31
2023/07/10 14:43:34;;;;;;;13.97;10.70;;;;;;;21.41;61.43;97085.72;10418232;28;20037;-32
2023/07/10 14:48:35;;;;;;;12.13;9.13;;;;;;;21.40;61.19;97086.59;10413845;28;20030;-31
2023/07/10 14:53:36;;;;;;;14.73;11.93;;;;;;;21.39;61.20;97086.63;10409957;28;20037;-32
2023/07/10 14:58:36;;;;;;;14.98;11.77;;;;;;;21.38;61.61;97080.66;10414798;28;20068;-31
2023/07/10 15:03:36;;;;;;;8.63;6.80;;;;;;;21.61;62.32;97073.72;10414763;28;20451;-31
2023/07/10 15:08:38;;;;;;;8.23;7.13;;;;;;;21.77;61.93;97074.50;10409042;28;20022;-31
2023/07/10 15:13:38;;;;;;;9.73;6.93;;;;;;;21.65;62.08;97067.78;10424397;28;20032;-31
2023/07/10 15:18:39;;;;;;;8.57;6.50;;;;;;;21.56;62.31;97069.53;10409592;28;20040;-32
2023/07/10 15:23:39;;;;;;;15.05;11.10;;;;;;;21.51;61.54;97067.00;10417128;28;20272;-32
2023/07/10 15:28:39;;;;;;;10.57;7.60;;;;;;;21.47;61.41;97055.13;10416568;28;20056;-31
2023/07/10 15:33:42;;;;;;;14.17;10.80;;;;;;;21.44;61.23;97051.75;10408554;28;20033;-31
2023/07/10 15:38:43;;;;;;;12.98;9.60;;;;;;;21.42;61.17;97045.84;10416036;28;20446;-31
2023/07/10 15:43:45;;;;;;;15.60;11.48;;;;;;;21.40;61.07;97043.28;10416778;28;20100;-35
2023/07/10 15:48:45;;;;;;;12.05;8.80;;;;;;;21.44;63.89;97039.88;10418449;28;20060;-31
2023/07/10 15:53:45;;;;;;;9.70;6.23;;;;;;;21.65;61.89;97039.75;10408918;28;20041;-32
2023/07/10 15:58:47;;;;;;;9.82;6.18;;;;;;;21.77;61.46;97031.16;10414898;28;20395;-36
2023/07/10 16:03:51;;;;;;;11.93;6.63;;;;;;;21.63;61.86;97031.25;10407644;28;20037;-32
2023/07/10 16:08:52;;;;;;;11.10;7.85;;;;;;;21.52;63.60;97027.94;10423613;28;20553;-31
2023/07/10 16:13:52;;;;;;;12.30;7.80;;;;;;;21.54;62.76;97031.31;10412756;28;20083;-31
2023/07/10 16:18:54;;;;;;;12.02;7.20;;;;;;;21.49;62.52;97027.94;10412522;28;20029;-32
2023/07/10 16:23:54;;;;;;;15.82;8.65;;;;;;;21.47;62.25;97022.00;10423294;28;20031;-31
2023/07/10 16:28:54;;;;;;;14.27;9.63;;;;;;;21.43;62.00;97017.81;10414674;28;20031;-32
2023/07/10 16:33:55;;;;;;;11.83;8.13;;;;;;;21.47;62.46;97011.00;10431803;28;20043;-30
2023/07/10 16:38:55;;;;;;;11.57;7.13;;;;;;;21.56;63.08;97019.41;10421575;28;20295;-32
2023/07/10 16:43:56;;;;;;;9.53;6.80;;;;;;;21.79;62.58;97022.66;10425148;28;20082;-31
2023/07/10 16:48:56;;;;;;;12.27;6.10;;;;;;;21.74;62.36;97014.19;10430016;28;20030;-31
2023/07/10 16:53:59;;;;;;;8.23;6.20;;;;;;;21.63;62.17;97015.94;10414071;28;20048;-31
2023/07/10 16:59:00;;;;;;;11.60;8.05;;;;;;;21.56;61.97;97008.38;10430584;28;20042;-31
2023/07/10 17:04:00;;;;;;;7.90;5.87;;;;;;;21.52;61.85;97012.66;10421202;28;20041;-31
2023/07/10 17:09:01;;;;;;;14.60;8.48;;;;;;;21.51;61.60;97015.19;10412999;28;20043;-31
2023/07/10 17:14:02;;;;;;;10.82;8.38;;;;;;;21.50;62.17;97009.28;10415427;28;20040;-32
2023/07/10 17:19:02;;;;;;;13.48;9.02;;;;;;;21.50;61.38;97008.41;10412631;28;20052;-31
2023/07/10 17:24:33;;;;;;;10.13;6.43;;;;;;;21.46;61.65;97006.75;10425102;28;20438;-32
2023/07/10 17:29:33;;;;;;;10.98;5.90;;;;;;;21.79;62.57;96999.72;10414526;28;20029;-31
2023/07/10 17:34:34;;;;;;;18.50;5.53;;;;;;;21.85;61.61;96996.25;10426653;28;20045;-31
2023/07/10 17:39:34;;;;;;;6.33;5.63;;;;;;;21.71;63.23;97008.28;10412744;28;20393;-32
2023/07/10 17:44:34;;;;;;;12.50;6.73;;;;;;;21.63;62.64;97005.75;10429232;28;20033;-31
2023/07/10 17:49:35;;;;;;;13.33;7.77;;;;;;;21.56;61.47;96999.00;10435814;28;20403;-30
2023/07/10 17:54:36;;;;;;;10.33;7.13;;;;;;;21.50;61.23;96993.97;10420082;28;20037;-32
2023/07/10 17:59:36;;;;;;;10.40;5.97;;;;;;;21.53;61.81;97001.59;10428129;28;20036;-31
2023/07/10 18:04:37;;;;;;;11.50;7.90;;;;;;;21.51;62.13;97000.78;10419708;28;20030;-33
2023/07/10 18:09:38;;;;;;;11.30;6.30;;;;;;;21.49;61.60;97002.47;10433859;28;20064;-32
2023/07/10 18:14:38;;;;;;;14.98;7.20;;;;;;;21.58;63.46;96997.31;10429522;28;20041;-32
2023/07/10 18:19:39;;;;;;;23.63;7.22;;;;;;;21.81;62.33;97000.53;10431099;28;20044;-32
2023/07/10 18:24:40;;;;;;;20.13;6.20;;;;;;;21.79;61.48;96986.97;10425975;28;20621;-32
2023/07/10 18:29:42;;;;;;;18.67;7.22;;;;;;;21.66;61.79;96997.28;10418559;28;20569;-31
2023/07/10 18:34:45;;;;;;;24.50;9.95;;;;;;;21.58;61.40;96997.31;10405186;28;20144;-31
2023/07/10 18:39:45;;;;;;;16.88;8.25;;;;;;;21.53;60.90;96995.63;10406557;28;20048;-32
2023/07/10 18:44:46;;;;;;;13.27;7.97;;;;;;;21.51;61.30;96999.91;10429497;28;20041;-30
2023/07/10 18:49:46;;;;;;;13.30;6.57;;;;;;;21.48;61.08;96999.94;10427920;28;20380;-31
2023/07/10 18:54:47;;;;;;;15.95;7.63;;;;;;;21.54;62.17;97000.72;10432013;28;20403;-31
2023/07/10 18:59:47;;;;;;;11.40;6.70;;;;;;;21.49;61.39;97002.47;10431982;28;20453;-31
2023/07/10 19:04:50;;;;;;;12.40;5.87;;;;;;;21.71;62.52;97008.28;10425712;28;20404;-32
2023/07/10 19:09:52;;;;;;;15.88;5.97;;;;;;;21.81;62.39;96995.44;10411141;28;20300;-35
2023/07/10 19:14:52;;;;;;;9.60;5.63;;;;;;;21.73;62.23;96989.56;10426903;28;20029;-32
2023/07/10 19:19:53;;;;;;;10.05;6.28;;;;;;;21.68;62.04;97001.50;10444448;28;20025;-32
2023/07/10 19:24:57;;;;;;;12.60;7.00;;;;;;;21.62;61.75;97004.06;10416765;28;20444;-33
2023/07/10 19:29:58;;;;;;;10.95;7.70;;;;;;;21.58;61.43;97006.66;10405675;28;20168;-32
2023/07/10 19:35:00;;;;;;;12.00;6.87;;;;;;;21.55;61.09;97012.63;10425717;28;20082;-32
2023/07/10 19:40:00;;;;;;;9.02;7.00;;;;;;;21.51;60.99;97010.97;10420761;28;20350;-33
2023/07/10 19:45:01;;;;;;;14.57;7.17;;;;;;;21.51;61.14;97013.50;10426971;28;20101;-32
2023/07/10 19:50:04;;;;;;;10.02;7.38;;;;;;;21.51;61.02;97010.97;10409181;28;20037;-32
2023/07/10 19:55:05;;;;;;;10.13;5.63;;;;;;;21.79;62.82;97016.69;10438232;28;20194;-32
2023/07/10 20:00:16;;;;;;;9.90;5.22;;;;;;;21.85;61.64;97017.50;10441434;28;20038;-32
2023/07/10 20:05:17;;;;;;;7.55;5.15;;;;;;;21.75;62.73;97025.25;10430496;28;20041;-33
2023/07/10 20:10:19;;;;;;;10.82;6.80;;;;;;;21.66;62.06;97026.13;10417043;28;20511;-32
2023/07/10 20:15:19;;;;;;;9.50;6.10;;;;;;;21.60;61.77;97033.81;10413560;28;20056;-29
2023/07/10 20:20:24;;;;;;;7.87;5.07;;;;;;;21.58;62.47;97024.50;10437050;28;20041;-32
2023/07/10 20:25:24;;;;;;;7.65;5.38;;;;;;;21.55;61.65;97027.91;10427585;28;20072;-32
2023/07/10 20:30:26;;;;;;;8.43;5.60;;;;;;;21.56;61.20;97028.75;10421688;28;20064;-32
2023/07/10 20:35:26;;;;;;;9.90;7.10;;;;;;;21.55;61.22;97027.91;10421036;28;20035;-33
2023/07/10 20:40:26;;;;;;;10.40;4.73;;;;;;;21.61;62.69;97027.88;10415581;28;20038;-31
2023/07/10 20:45:28;;;;;;;8.10;5.25;;;;;;;21.85;62.07;97027.72;10431891;28;20391;-33
2023/07/10 20:50:28;;;;;;;7.63;4.45;;;;;;;21.83;61.61;97029.44;10435581;28;20037;-34
2023/07/10 20:55:28;;;;;;;7.87;5.03;;;;;;;21.70;61.72;97027.81;10421016;28;20053;-32
2023/07/10 21:00:29;;;;;;;7.80;5.50;;;;;;;21.63;61.50;97030.41;10420668;28;20300;-35
2023/07/10 21:05:29;;;;;;;8.13;4.90;;;;;;;21.58;61.34;97022.81;10428824;28;20377;-32
2023/07/10 21:10:29;;;;;;;7.07;4.47;;;;;;;21.56;60.74;97027.03;10430216;28;20442;-32
2023/07/10 21:15:30;;;;;;;6.97;4.87;;;;;;;21.53;60.84;97021.13;10430283;28;20394;-32
2023/07/10 21:20:30;;;;;;;7.37;6.03;;;;;;;21.51;60.77;97026.25;10431681;28;20029;-32
2023/07/10 21:25:32;;;;;;;6.10;5.33;;;;;;;21.51;60.74;97016.06;10413016;28;20033;-32
2023/07/10 21:30:32;;;;;;;8.35;4.18;;;;;;;21.73;62.37;97020.16;10438304;28;20479;-32
2023/07/10 21:35:35;;;;;;;5.25;4.22;;;;;;;21.88;61.30;97017.47;10420015;28;20029;-33
2023/07/10 21:40:38;;;;;;;4.72;3.55;;;;;;;21.77;61.70;97019.28;10413657;28;20068;-33
2023/07/10 21:45:41;;;;;;;7.45;4.43;;;;;;;21.67;61.67;97017.66;10420755;28;20041;-32
2023/07/10 21:50:41;;;;;;;7.75;5.85;;;;;;;21.65;61.80;97018.53;10436590;28;20037;-33
2023/07/10 21:55:41;;;;;;;6.80;4.47;;;;;;;21.60;61.21;97018.53;10411977;28;20072;-34
2023/07/10 22:00:42;;;;;;;6.33;4.67;;;;;;;21.58;60.98;97012.59;10429008;28;20733;-33
2023/07/10 22:05:42;;;;;;;7.73;5.07;;;;;;;21.56;60.75;97014.31;10412214;28;20087;-31
2023/07/10 22:10:44;;;;;;;7.23;5.00;;;;;;;21.56;60.80;97019.41;10410941;28;20037;-32
2023/07/10 22:15:46;;;;;;;7.57;5.53;;;;;;;21.61;62.20;97004.94;10414119;28;20036;-32
2023/07/10 22:20:50;;;;;;;7.25;3.92;;;;;;;21.83;61.97;97003.09;10423988;28;20415;-32
2023/07/10 22:25:54;;;;;;;5.13;3.40;;;;;;;21.84;60.86;97000.53;10423716;28;20037;-32
2023/07/10 22:30:57;;;;;;;4.05;3.30;;;;;;;21.73;61.67;96997.22;10418107;28;20035;-32
2023/07/10 22:35:58;;;;;;;6.47;5.15;;;;;;;21.66;61.30;96998.09;10420215;28;20539;-33
2023/07/10 22:41:05;;;;;;;7.38;4.65;;;;;;;21.64;61.27;96993.88;10428463;28;20041;-32
2023/07/10 22:46:22;;;;;;;5.22;4.68;;;;;;;21.61;60.87;96992.19;10424429;28;20098;-32
2023/07/10 22:51:29;;;;;;;7.32;4.35;;;;;;;21.56;60.74;96993.91;10420875;28;20064;-32
2023/07/10 22:56:33;;;;;;;4.32;3.92;;;;;;;21.56;60.73;96990.53;10410174;28;20041;-32
2023/07/10 23:01:34;;;;;;;5.97;3.90;;;;;;;21.55;61.07;96987.13;10424581;28;20057;-32
2023/07/10 23:06:34;;;;;;;4.45;4.03;;;;;;;21.70;62.04;96983.63;10417613;28;20034;-33
2023/07/10 23:11:34;;;;;;;4.50;4.00;;;;;;;21.87;61.30;96985.19;10416321;28;20037;-33
2023/07/10 23:16:36;;;;;;;4.47;3.50;;;;;;;21.81;60.76;96977.59;10417337;28;20041;-32
2023/07/10 23:21:36;;;;;;;4.88;3.30;;;;;;;21.68;60.91;96981.13;10425336;28;20092;-32